Queanbeyan, Australia
Current Conditions -  °F | °C
As of 9:00 PM on Saturday 22 Nov 2014 (Local Time) from YSCB Reporting Station
Clear Clear  
Wind Chill: 68°   Ceiling: Unl
Heat Index: 68°   Visibility: 6mi
Dew Point: 50°   Wind: 0mph
Humidity: 52%   Direction: NA
Pressure: 29.91"   Gusts: NA
Location:  35.35°S, 149.23°E
Report Text: YSCB 221000Z AUTO 00000KT 9999 // NCD 20/10 Q1013
Loading
Personal Weather Stations






























Interactive Weather Map New forecast layout! Learn more

10-Day Weather Forecast

Advertisements
Track Severe Weather on mobile